createdAt,value
2023-05-07T00:01:31.387Z,98089.00
2023-05-07T00:03:33.425Z,98083.88
2023-05-07T00:05:34.927Z,98081.34
2023-05-07T00:07:36.352Z,98077.94
2023-05-07T00:09:37.907Z,98085.59
2023-05-07T00:11:39.240Z,98079.69
2023-05-07T00:13:40.548Z,98073.81
2023-05-07T00:15:41.853Z,98079.16
2023-05-07T00:17:43.273Z,98074.16
2023-05-07T00:19:44.619Z,98073.34
2023-05-07T00:21:46.287Z,98072.50
2023-05-07T00:23:47.602Z,98077.59
2023-05-07T00:25:48.902Z,98073.34
2023-05-07T00:27:50.355Z,98080.09
2023-05-07T00:29:51.650Z,98083.53
2023-05-07T00:31:54.975Z,98080.06
2023-05-07T00:33:56.395Z,98085.13
2023-05-07T00:35:57.737Z,98085.94
2023-05-07T00:37:59.043Z,98085.94
2023-05-07T00:40:00.416Z,98086.81
2023-05-07T00:42:02.175Z,98092.81
2023-05-07T00:44:03.546Z,98092.81
2023-05-07T00:46:04.948Z,98087.69
2023-05-07T00:48:06.406Z,98092.78
2023-05-07T00:50:08.276Z,98089.25
2023-05-07T00:52:09.619Z,98096.13
2023-05-07T00:54:11.036Z,98094.44
2023-05-07T00:56:12.396Z,98091.88
2023-05-07T00:58:13.827Z,98095.34
2023-05-07T01:00:15.369Z,98097.97
2023-05-07T01:02:16.825Z,98104.84
2023-05-07T01:04:18.176Z,98099.72
2023-05-07T01:06:19.904Z,98091.16
2023-05-07T01:08:21.632Z,98102.22
2023-05-07T01:10:22.927Z,98096.28
2023-05-07T01:12:24.252Z,98092.00
2023-05-07T01:14:25.595Z,98092.00
2023-05-07T01:16:27.871Z,98088.59
2023-05-07T01:18:30.981Z,98089.50
2023-05-07T01:20:32.306Z,98092.91
2023-05-07T01:22:33.598Z,98096.34
2023-05-07T01:24:34.937Z,97969.53
2023-05-07T01:26:36.376Z,98094.56
2023-05-07T01:28:37.668Z,98086.91
2023-05-07T01:30:39.007Z,98087.75
2023-05-07T01:32:40.372Z,98084.38
2023-05-07T01:34:41.830Z,98091.22
2023-05-07T01:36:43.294Z,98094.63
2023-05-07T01:38:44.615Z,98096.34
2023-05-07T01:40:46.137Z,98095.41
2023-05-07T01:42:47.493Z,98104.84
2023-05-07T01:44:48.903Z,98103.03
2023-05-07T01:46:50.477Z,98102.16
2023-05-07T01:48:51.828Z,98107.22
2023-05-07T01:50:53.262Z,98097.91
2023-05-07T01:52:54.756Z,98092.78
2023-05-07T01:54:56.104Z,98100.44
2023-05-07T01:56:57.398Z,98105.50
2023-05-07T01:58:58.771Z,98102.09
2023-05-07T02:01:00.116Z,98102.09
2023-05-07T02:03:01.576Z,98108.88
2023-05-07T02:05:03.039Z,98102.81
2023-05-07T02:07:04.380Z,98114.81
2023-05-07T02:09:06.904Z,98107.94
2023-05-07T02:11:08.268Z,98105.34
2023-05-07T02:13:09.672Z,97977.69
2023-05-07T02:15:11.587Z,98113.72
2023-05-07T02:17:12.900Z,98112.78
2023-05-07T02:19:14.220Z,98108.53
2023-05-07T02:21:15.532Z,98114.50
2023-05-07T02:23:16.829Z,98111.09
2023-05-07T02:25:18.144Z,98113.66
2023-05-07T02:27:19.455Z,98121.25
2023-05-07T02:29:20.861Z,98114.44
2023-05-07T02:31:22.202Z,98111.09
2023-05-07T02:33:23.537Z,98115.47
2023-05-07T02:35:24.895Z,98118.94
2023-05-07T02:37:26.195Z,98114.81
2023-05-07T02:39:27.538Z,98118.28
2023-05-07T02:41:29.121Z,98122.63
2023-05-07T02:43:30.558Z,98124.31
2023-05-07T02:45:31.901Z,98122.53
2023-05-07T02:47:33.263Z,98127.59
2023-05-07T02:49:34.619Z,98127.47
2023-05-07T02:51:36.049Z,98125.66
2023-05-07T02:53:37.738Z,98116.28
2023-05-07T02:55:39.170Z,98117.19
2023-05-07T02:57:40.518Z,98121.53
2023-05-07T02:59:41.827Z,98121.56
2023-05-07T03:01:45.148Z,98111.34
2023-05-07T03:03:46.611Z,98114.72
2023-05-07T03:05:47.993Z,98112.97
2023-05-07T03:07:49.340Z,98117.19
2023-05-07T03:09:50.905Z,98112.09
2023-05-07T03:11:52.316Z,98121.41
2023-05-07T03:13:53.614Z,98111.16
2023-05-07T03:15:54.973Z,98120.53
2023-05-07T03:17:56.345Z,98127.44
2023-05-07T03:19:57.715Z,98124.06
2023-05-07T03:21:59.056Z,98116.44
2023-05-07T03:24:00.375Z,98121.50
2023-05-07T03:26:01.784Z,98028.19
2023-05-07T03:28:03.150Z,98132.53
2023-05-07T03:30:04.499Z,98132.53
2023-05-07T03:32:06.916Z,98128.31
2023-05-07T03:34:08.223Z,98127.50
2023-05-07T03:36:09.543Z,98127.59
2023-05-07T03:38:10.928Z,98125.94
2023-05-07T03:40:13.532Z,98131.06
2023-05-07T03:42:15.810Z,98132.84
2023-05-07T03:44:17.147Z,98128.59
2023-05-07T03:46:18.490Z,98129.38
2023-05-07T03:48:19.857Z,98137.91
2023-05-07T03:50:21.158Z,98133.63
2023-05-07T03:52:26.821Z,98130.22
2023-05-07T03:54:28.192Z,98139.53
2023-05-07T03:56:29.511Z,98138.75
2023-05-07T03:58:30.856Z,98137.88
2023-05-07T04:00:34.630Z,98135.25
2023-05-07T04:02:36.145Z,98141.03
2023-05-07T04:04:37.504Z,98135.03
2023-05-07T04:06:38.804Z,98146.06
2023-05-07T04:08:40.168Z,98151.16
2023-05-07T04:10:41.502Z,98150.31
2023-05-07T04:12:42.825Z,98152.06
2023-05-07T04:14:44.203Z,98159.75
2023-05-07T04:16:45.581Z,98154.63
2023-05-07T04:18:46.922Z,98158.09
2023-05-07T04:20:48.259Z,98156.41
2023-05-07T04:22:49.606Z,98156.38
2023-05-07T04:24:50.944Z,98149.53
2023-05-07T04:26:52.268Z,98160.59
2023-05-07T04:28:53.585Z,98160.56
2023-05-07T04:30:54.891Z,98154.63
2023-05-07T04:32:57.210Z,98155.47
2023-05-07T04:34:58.569Z,98158.03
2023-05-07T04:36:59.904Z,98158.03
2023-05-07T04:39:01.501Z,98161.44
2023-05-07T04:41:02.854Z,98162.34
2023-05-07T04:43:04.151Z,98153.91
2023-05-07T04:45:05.943Z,98164.19
2023-05-07T04:47:07.525Z,98157.34
2023-05-07T04:49:08.831Z,98160.72
2023-05-07T04:51:10.132Z,98159.00
2023-05-07T04:53:11.430Z,98165.84
2023-05-07T04:55:12.727Z,98164.97
2023-05-07T04:57:14.302Z,98163.16
2023-05-07T04:59:15.607Z,98166.50
2023-05-07T05:01:17.075Z,98168.28
2023-05-07T05:03:18.475Z,98168.31
2023-05-07T05:05:19.832Z,98174.28
2023-05-07T05:07:21.206Z,98176.03
2023-05-07T05:09:22.507Z,98177.69
2023-05-07T05:11:23.811Z,98172.47
2023-05-07T05:13:25.160Z,98174.16
2023-05-07T05:15:26.462Z,98173.31
2023-05-07T05:17:27.805Z,98181.00
2023-05-07T05:19:29.773Z,98184.38
2023-05-07T05:21:31.114Z,98191.22
2023-05-07T05:23:32.518Z,98196.38
2023-05-07T05:25:33.867Z,98195.63
2023-05-07T05:27:35.170Z,98200.75
2023-05-07T05:29:36.602Z,98197.38
2023-05-07T05:31:38.359Z,98206.72
2023-05-07T05:33:39.655Z,98209.28
2023-05-07T05:35:40.968Z,98205.03
2023-05-07T05:37:42.454Z,98208.31
2023-05-07T05:39:43.853Z,98212.63
2023-05-07T05:41:45.240Z,98220.28
2023-05-07T05:43:46.603Z,98218.56
2023-05-07T05:45:47.895Z,98213.44
2023-05-07T05:47:49.304Z,98215.13
2023-05-07T05:49:50.749Z,98221.16
2023-05-07T05:51:52.044Z,98220.34
2023-05-07T05:53:53.350Z,98213.56
2023-05-07T05:55:54.715Z,98222.03
2023-05-07T05:57:56.132Z,98214.84
2023-05-07T05:59:57.489Z,98222.69
2023-05-07T06:01:58.896Z,98219.47
2023-05-07T06:04:00.239Z,98219.63
2023-05-07T06:06:02.205Z,98210.22
2023-05-07T06:08:03.551Z,98221.31
2023-05-07T06:10:04.857Z,98211.97
2023-05-07T06:12:06.218Z,98213.72
2023-05-07T06:14:07.725Z,98216.34
2023-05-07T06:16:09.117Z,98217.25
2023-05-07T06:18:10.517Z,98220.66
2023-05-07T06:20:12.116Z,98215.56
2023-05-07T06:22:13.698Z,98226.63
2023-05-07T06:24:15.032Z,98238.50
2023-05-07T06:26:16.357Z,98243.59
2023-05-07T06:28:17.743Z,98237.59
2023-05-07T06:30:19.038Z,98241.84
2023-05-07T06:32:20.586Z,98249.31
2023-05-07T06:34:21.973Z,98252.41
2023-05-07T06:36:23.285Z,98253.97
2023-05-07T06:38:24.600Z,98253.06
2023-05-07T06:40:25.905Z,98263.88
2023-05-07T06:42:27.684Z,98266.56
2023-05-07T06:44:29.143Z,98262.63
2023-05-07T06:46:30.803Z,98262.91
2023-05-07T06:48:32.192Z,98266.22
2023-05-07T06:50:33.613Z,98268.59
2023-05-07T06:52:34.981Z,98279.91
2023-05-07T06:54:39.332Z,98286.09
2023-05-07T06:56:40.896Z,98287.09
2023-05-07T06:58:42.372Z,98282.94
2023-05-07T07:00:43.786Z,98283.00
2023-05-07T07:02:45.678Z,98290.72
2023-05-07T07:04:47.075Z,98284.81
2023-05-07T07:06:48.423Z,98289.94
2023-05-07T07:08:49.745Z,98300.16
2023-05-07T07:10:51.186Z,98297.66
2023-05-07T07:12:53.752Z,98291.72
2023-05-07T07:14:55.321Z,98294.31
2023-05-07T07:16:56.666Z,98297.75
2023-05-07T07:18:58.027Z,98302.03
2023-05-07T07:20:59.989Z,98298.69
2023-05-07T07:23:02.158Z,98169.09
2023-05-07T07:25:03.503Z,98289.41
2023-05-07T07:27:04.828Z,98290.28
2023-05-07T07:29:06.120Z,98283.47
2023-05-07T07:31:07.859Z,98280.97
2023-05-07T07:33:09.322Z,98291.19
2023-05-07T07:35:11.022Z,98280.97
2023-05-07T07:37:12.324Z,98286.88
2023-05-07T07:39:13.613Z,98288.63
2023-05-07T07:41:14.956Z,98291.16
2023-05-07T07:43:16.302Z,98293.69
2023-05-07T07:45:17.615Z,98307.31
2023-05-07T07:47:18.928Z,98301.56
2023-05-07T07:49:20.408Z,98298.06
2023-05-07T07:51:21.736Z,98303.94
2023-05-07T07:53:23.060Z,98303.34
2023-05-07T07:55:24.421Z,98305.63
2023-05-07T07:57:25.837Z,98301.72
2023-05-07T07:59:27.188Z,98296.72
2023-05-07T08:01:28.572Z,98298.94
2023-05-07T08:03:33.052Z,98303.44
2023-05-07T08:05:34.487Z,98297.13
2023-05-07T08:07:35.863Z,98309.19
2023-05-07T08:09:37.219Z,98307.38
2023-05-07T08:11:38.639Z,98309.81
2023-05-07T08:13:39.981Z,98307.97
2023-05-07T08:15:41.270Z,98312.88
2023-05-07T08:17:42.633Z,98318.81
2023-05-07T08:19:44.516Z,98316.22
2023-05-07T08:21:46.016Z,98310.19
2023-05-07T08:23:47.317Z,98310.09
2023-05-07T08:25:48.632Z,98316.91
2023-05-07T08:27:49.973Z,98313.50
2023-05-07T08:29:51.420Z,98330.53
2023-05-07T08:31:52.811Z,98328.88
2023-05-07T08:33:54.151Z,98322.84
2023-05-07T08:35:55.499Z,98327.06
2023-05-07T08:37:56.883Z,98332.97
2023-05-07T08:39:58.191Z,98334.66
2023-05-07T08:41:59.497Z,98326.13
2023-05-07T08:44:02.192Z,98332.88
2023-05-07T08:46:03.624Z,98320.09
2023-05-07T08:48:05.166Z,98315.03
2023-05-07T08:50:06.546Z,98317.53
2023-05-07T08:52:09.823Z,98314.97
2023-05-07T08:54:11.716Z,98318.47
2023-05-07T08:56:13.037Z,98322.00
2023-05-07T08:58:14.662Z,98315.31
2023-05-07T09:00:16.024Z,98326.28
2023-05-07T09:02:17.737Z,98331.94
2023-05-07T09:04:19.329Z,98333.13
2023-05-07T09:06:20.759Z,98337.53
2023-05-07T09:08:22.055Z,98341.06
2023-05-07T09:10:23.393Z,98336.03
2023-05-07T09:12:24.745Z,98331.91
2023-05-07T09:14:26.080Z,98341.38
2023-05-07T09:16:27.556Z,98338.88
2023-05-07T09:18:28.913Z,98356.88
2023-05-07T09:20:30.364Z,98350.97
2023-05-07T09:22:31.674Z,98355.31
2023-05-07T09:24:36.044Z,98354.50
2023-05-07T09:26:40.231Z,98351.16
2023-05-07T09:28:42.449Z,98361.53
2023-05-07T09:30:43.783Z,98356.38
2023-05-07T09:32:45.165Z,98356.38
2023-05-07T09:34:48.176Z,98356.38
2023-05-07T09:36:49.514Z,98359.78
2023-05-07T09:38:52.391Z,98362.34
2023-05-07T09:40:53.917Z,98355.53
2023-05-07T09:42:55.221Z,98359.78
2023-05-07T09:44:56.627Z,98360.63
2023-05-07T09:46:58.015Z,98359.78
2023-05-07T09:48:59.825Z,98362.34
2023-05-07T09:51:02.144Z,98358.13
2023-05-07T09:53:03.467Z,98356.47
2023-05-07T09:55:05.543Z,98353.13
2023-05-07T09:57:07.975Z,98354.88
2023-05-07T09:59:09.384Z,98356.56
2023-05-07T10:01:10.746Z,98353.22
2023-05-07T10:03:12.673Z,98354.91
2023-05-07T10:05:14.046Z,98343.84
2023-05-07T10:07:15.605Z,98354.06
2023-05-07T10:09:17.381Z,98348.84
2023-05-07T10:11:18.731Z,98350.56
2023-05-07T10:13:20.089Z,98354.78
2023-05-07T10:15:21.463Z,98352.22
2023-05-07T10:17:26.035Z,98357.28
2023-05-07T10:19:27.487Z,98363.28
2023-05-07T10:21:29.152Z,98359.84
2023-05-07T10:23:33.926Z,98367.50
2023-05-07T10:25:35.392Z,98365.78
2023-05-07T10:27:36.704Z,98366.66
2023-05-07T10:29:38.043Z,98361.53
2023-05-07T10:31:39.519Z,98367.50
2023-05-07T10:33:40.961Z,98366.66
2023-05-07T10:35:42.300Z,98368.34
2023-05-07T10:37:43.633Z,98367.44
2023-05-07T10:39:44.990Z,98363.97
2023-05-07T10:41:52.176Z,98368.09
2023-05-07T10:43:53.468Z,98360.38
2023-05-07T10:45:54.813Z,98357.03
2023-05-07T10:47:56.173Z,98360.50
2023-05-07T10:50:00.422Z,98364.00
2023-05-07T10:52:01.781Z,98358.94
2023-05-07T10:54:03.081Z,98370.97
2023-05-07T10:56:04.454Z,98372.72
2023-05-07T10:58:05.788Z,98375.34
2023-05-07T11:00:10.099Z,98363.47
2023-05-07T11:02:12.381Z,98370.75
2023-05-07T11:04:13.940Z,98357.50
2023-05-07T11:06:15.519Z,98361.47
2023-05-07T11:08:16.865Z,98372.41
2023-05-07T11:10:18.178Z,98370.69
2023-05-07T11:12:19.470Z,98382.59
2023-05-07T11:14:20.774Z,98380.91
2023-05-07T11:16:22.322Z,98380.91
2023-05-07T11:18:23.681Z,98380.31
2023-05-07T11:20:28.084Z,98377.97
2023-05-07T11:22:29.395Z,98379.00
2023-05-07T11:24:30.766Z,98381.69
2023-05-07T11:26:32.186Z,98384.28
2023-05-07T11:28:33.497Z,98389.41
2023-05-07T11:30:34.848Z,98389.41
2023-05-07T11:32:36.326Z,98386.00
2023-05-07T11:34:37.708Z,98398.78
2023-05-07T11:36:39.675Z,98389.44
2023-05-07T11:38:41.200Z,98392.91
2023-05-07T11:40:42.546Z,98401.47
2023-05-07T11:42:46.981Z,98400.63
2023-05-07T11:44:49.221Z,98393.81
2023-05-07T11:46:50.683Z,98390.41
2023-05-07T11:48:52.121Z,98402.28
2023-05-07T11:50:56.155Z,98404.84
2023-05-07T11:52:57.455Z,98405.69
2023-05-07T11:54:58.915Z,98402.19
2023-05-07T11:57:00.469Z,98402.22
2023-05-07T11:59:01.800Z,98396.28
2023-05-07T12:01:03.135Z,98404.78
2023-05-07T12:03:07.686Z,98400.53
2023-05-07T12:05:12.349Z,98412.41
2023-05-07T12:07:14.620Z,98405.59
2023-05-07T12:09:15.954Z,98402.13
2023-05-07T12:11:18.510Z,98397.00
2023-05-07T12:13:20.064Z,98396.97
2023-05-07T12:15:21.456Z,98396.91
2023-05-07T12:17:22.780Z,98401.13
2023-05-07T12:19:24.112Z,98400.19
2023-05-07T12:21:26.251Z,98402.69
2023-05-07T12:23:30.506Z,98402.69
2023-05-07T12:25:32.108Z,98402.72
2023-05-07T12:27:33.408Z,98401.88
2023-05-07T12:29:34.768Z,98401.81
2023-05-07T12:31:36.276Z,98396.72
2023-05-07T12:33:37.811Z,98403.53
2023-05-07T12:35:43.697Z,98401.81
2023-05-07T12:37:45.023Z,98412.06
2023-05-07T12:39:46.326Z,98408.59
2023-05-07T12:41:47.668Z,98408.59
2023-05-07T12:43:48.970Z,98414.56
2023-05-07T12:45:50.276Z,98415.47
2023-05-07T12:47:51.676Z,98412.16
2023-05-07T12:49:53.011Z,98420.69
2023-05-07T12:51:54.340Z,98419.03
2023-05-07T12:53:55.692Z,98418.19
2023-05-07T12:55:57.127Z,98423.34
2023-05-07T12:57:59.337Z,98423.34
2023-05-07T13:00:00.855Z,98428.44
2023-05-07T13:02:02.341Z,98427.41
2023-05-07T13:04:03.927Z,98434.97
2023-05-07T13:06:08.376Z,98433.41
2023-05-07T13:08:10.699Z,98431.84
2023-05-07T13:10:12.027Z,98425.19
2023-05-07T13:12:13.343Z,98438.06
2023-05-07T13:14:14.669Z,98423.66
2023-05-07T13:16:16.052Z,98423.75
2023-05-07T13:18:17.567Z,98422.88
2023-05-07T13:20:18.972Z,98422.91
2023-05-07T13:22:20.303Z,98422.19
2023-05-07T13:24:21.754Z,98423.13
2023-05-07T13:26:26.938Z,98424.06
2023-05-07T13:28:28.603Z,98412.22
2023-05-07T13:30:29.932Z,98418.22
2023-05-07T13:32:31.378Z,98420.81
2023-05-07T13:34:32.775Z,98424.25
2023-05-07T13:36:38.062Z,98427.72
2023-05-07T13:38:39.398Z,98433.69
2023-05-07T13:40:40.928Z,98428.53
2023-05-07T13:42:42.512Z,98429.38
2023-05-07T13:44:44.862Z,98428.53
2023-05-07T13:46:46.309Z,98430.19
2023-05-07T13:48:47.709Z,98435.25
2023-05-07T13:50:49.003Z,98439.47
2023-05-07T13:52:53.071Z,98436.06
2023-05-07T13:54:54.381Z,98436.06
2023-05-07T13:56:55.749Z,98435.19
2023-05-07T13:59:00.459Z,98436.06
2023-05-07T14:01:02.191Z,98433.50
2023-05-07T14:03:03.702Z,98431.75
2023-05-07T14:05:05.126Z,98430.84
2023-05-07T14:07:06.662Z,98426.50
2023-05-07T14:09:08.197Z,98423.91
2023-05-07T14:11:09.615Z,98431.50
2023-05-07T14:13:11.709Z,98436.53
2023-05-07T14:15:17.120Z,98432.28
2023-05-07T14:17:18.753Z,98429.72
2023-05-07T14:19:20.290Z,98428.06
2023-05-07T14:21:21.616Z,98429.84
2023-05-07T14:23:33.189Z,98423.94
2023-05-07T14:25:34.541Z,98431.66
2023-05-07T14:27:36.042Z,98431.69
2023-05-07T14:29:37.522Z,98431.75
2023-05-07T14:31:38.933Z,98434.34
2023-05-07T14:33:42.022Z,98438.63
2023-05-07T14:35:48.981Z,98440.34
2023-05-07T14:37:50.337Z,98432.78
2023-05-07T14:39:51.670Z,98437.06
2023-05-07T14:41:52.992Z,98440.56
2023-05-07T14:43:54.339Z,98440.59
2023-05-07T14:45:55.786Z,98431.28
2023-05-07T14:47:57.252Z,98427.88
2023-05-07T14:49:59.440Z,98433.00
2023-05-07T14:52:07.196Z,98433.84
2023-05-07T14:54:08.949Z,98432.97
2023-05-07T14:56:10.342Z,98418.47
2023-05-07T14:58:11.653Z,98423.53
2023-05-07T15:00:13.830Z,98434.59
2023-05-07T15:02:16.551Z,98429.41
2023-05-07T15:04:17.954Z,98433.69
2023-05-07T15:06:19.336Z,98443.00
2023-05-07T15:08:20.837Z,98438.75
2023-05-07T15:10:22.154Z,98436.22
2023-05-07T15:12:23.473Z,98434.53
2023-05-07T15:14:24.772Z,98435.38
2023-05-07T15:16:28.770Z,98439.63
2023-05-07T15:18:30.172Z,98432.81
2023-05-07T15:20:31.516Z,98431.94
2023-05-07T15:22:32.926Z,98435.38
2023-05-07T15:24:34.240Z,98433.69
2023-05-07T15:26:35.553Z,98442.19
2023-05-07T15:28:36.895Z,98427.75
2023-05-07T15:30:38.234Z,98437.16
2023-05-07T15:32:39.669Z,98432.81
2023-05-07T15:34:47.941Z,98436.22
2023-05-07T15:36:49.366Z,98437.03
2023-05-07T15:38:50.694Z,98441.25
2023-05-07T15:40:51.999Z,98442.94
2023-05-07T15:42:53.336Z,98441.22
2023-05-07T15:44:54.684Z,98449.69
2023-05-07T15:46:55.987Z,98443.72
2023-05-07T15:48:57.353Z,98446.28
2023-05-07T15:50:59.189Z,98453.94
2023-05-07T15:53:00.491Z,98447.13
2023-05-07T15:55:03.524Z,98448.03
2023-05-07T15:57:11.825Z,98448.91
2023-05-07T15:59:13.181Z,98443.00
2023-05-07T16:01:14.478Z,98445.56
2023-05-07T16:03:16.320Z,98448.16
2023-05-07T16:05:17.878Z,98441.38
2023-05-07T16:07:19.869Z,98441.97
2023-05-07T16:09:21.527Z,98446.09
2023-05-07T16:11:22.851Z,98448.94
2023-05-07T16:13:24.992Z,98445.78
2023-05-07T16:15:26.522Z,98455.13
2023-05-07T16:17:30.837Z,98445.88
2023-05-07T16:19:32.154Z,98439.78
2023-05-07T16:21:33.479Z,98448.94
2023-05-07T16:23:34.907Z,98439.22
2023-05-07T16:25:36.217Z,98450.09
2023-05-07T16:27:37.521Z,98442.56
2023-05-07T16:29:39.019Z,98447.66
2023-05-07T16:31:40.772Z,98445.13
2023-05-07T16:33:45.200Z,98454.50
2023-05-07T16:35:47.652Z,98452.69
2023-05-07T16:37:55.074Z,98447.59
2023-05-07T16:40:00.750Z,98449.03
2023-05-07T16:42:03.016Z,98449.50
2023-05-07T16:44:04.378Z,98448.44
2023-05-07T16:46:05.873Z,98444.91
2023-05-07T16:48:08.475Z,98440.63
2023-05-07T16:50:09.986Z,98432.88
2023-05-07T16:52:11.294Z,98431.81
2023-05-07T16:54:12.809Z,98433.97
2023-05-07T16:56:14.154Z,98449.38
2023-05-07T16:58:15.539Z,98437.91
2023-05-07T17:00:16.928Z,98442.22
2023-05-07T17:02:18.238Z,98447.06
2023-05-07T17:04:19.575Z,98442.97
2023-05-07T17:06:20.925Z,98444.28
2023-05-07T17:08:22.257Z,98440.25
2023-05-07T17:10:23.548Z,98451.38
2023-05-07T17:12:25.359Z,98446.34
2023-05-07T17:14:26.704Z,98443.28
2023-05-07T17:16:28.089Z,98454.44
2023-05-07T17:18:29.456Z,98443.44
2023-05-07T17:20:31.070Z,98453.03
2023-05-07T17:22:32.405Z,98462.44
2023-05-07T17:24:33.739Z,98462.44
2023-05-07T17:26:36.500Z,98466.91
2023-05-07T17:28:37.814Z,98470.94
2023-05-07T17:30:39.117Z,98478.19
2023-05-07T17:32:40.464Z,98473.81
2023-05-07T17:34:41.803Z,98482.22
2023-05-07T17:36:43.164Z,98478.06
2023-05-07T17:38:44.464Z,98476.88
2023-05-07T17:40:45.837Z,98478.66
2023-05-07T17:42:47.185Z,98485.78
2023-05-07T17:44:57.538Z,98479.75
2023-05-07T17:46:58.979Z,98486.00
2023-05-07T17:49:03.371Z,98492.34
2023-05-07T17:51:04.705Z,98489.88
2023-05-07T17:53:06.187Z,98482.66
2023-05-07T17:55:07.534Z,98480.06
2023-05-07T17:57:14.972Z,98484.03
2023-05-07T17:59:16.346Z,98484.41
2023-05-07T18:01:17.754Z,98483.78
2023-05-07T18:03:19.218Z,98495.03
2023-05-07T18:05:20.589Z,98495.91
2023-05-07T18:07:21.965Z,98505.31
2023-05-07T18:09:23.289Z,98499.41
2023-05-07T18:11:24.805Z,98499.91
2023-05-07T18:13:26.171Z,98499.75
2023-05-07T18:15:27.503Z,98498.84
2023-05-07T18:17:28.853Z,98508.75
2023-05-07T18:19:30.248Z,98508.09
2023-05-07T18:21:31.763Z,98514.13
2023-05-07T18:23:36.766Z,98513.09
2023-05-07T18:25:47.198Z,98518.44
2023-05-07T18:27:48.563Z,98519.09
2023-05-07T18:29:49.931Z,98517.25
2023-05-07T18:31:51.318Z,98522.28
2023-05-07T18:33:53.106Z,98526.38
2023-05-07T18:35:57.063Z,98524.50
2023-05-07T18:38:00.488Z,98522.28
2023-05-07T18:40:04.011Z,98521.38
2023-05-07T18:42:05.388Z,98521.41
2023-05-07T18:44:07.265Z,98509.38
2023-05-07T18:46:08.708Z,98513.56
2023-05-07T18:48:10.130Z,98523.78
2023-05-07T18:50:11.806Z,98523.78
2023-05-07T18:52:13.346Z,98522.97
2023-05-07T18:54:14.659Z,98520.41
2023-05-07T18:56:16.016Z,98525.56
2023-05-07T18:58:19.750Z,98523.84
2023-05-07T19:00:21.228Z,98524.72
2023-05-07T19:02:25.622Z,98531.56
2023-05-07T19:04:27.024Z,98542.53
2023-05-07T19:06:33.244Z,98537.41
2023-05-07T19:08:35.134Z,98539.19
2023-05-07T19:10:36.451Z,98534.91
2023-05-07T19:12:37.854Z,98539.13
2023-05-07T19:14:42.802Z,98537.44
2023-05-07T19:16:44.156Z,98541.75
2023-05-07T19:18:45.486Z,98539.19
2023-05-07T19:20:46.789Z,98549.38
2023-05-07T19:22:48.148Z,98552.13
2023-05-07T19:24:49.503Z,98556.06
2023-05-07T19:26:51.367Z,98552.16
2023-05-07T19:29:01.680Z,98555.31
2023-05-07T19:31:13.520Z,98554.13
2023-05-07T19:33:14.863Z,98547.88
2023-05-07T19:35:16.240Z,98547.75
2023-05-07T19:37:17.701Z,98556.09
2023-05-07T19:39:20.363Z,98557.47
2023-05-07T19:41:24.946Z,98559.06
2023-05-07T19:43:26.263Z,98551.03
2023-05-07T19:45:27.607Z,98552.53
2023-05-07T19:47:29.072Z,98554.78
2023-05-07T19:49:30.482Z,98547.75
2023-05-07T19:51:33.270Z,98563.00
2023-05-07T19:53:34.612Z,98557.03
2023-05-07T19:55:35.949Z,98565.56
2023-05-07T19:57:37.274Z,98564.66
2023-05-07T19:59:38.684Z,98561.34
2023-05-07T20:01:40.177Z,98566.59
2023-05-07T20:03:41.982Z,98563.31
2023-05-07T20:05:43.424Z,98560.84
2023-05-07T20:07:50.656Z,98560.09
2023-05-07T20:09:54.926Z,98561.81
2023-05-07T20:11:56.871Z,98556.75
2023-05-07T20:13:58.196Z,98560.16
2023-05-07T20:15:59.811Z,98556.75
2023-05-07T20:18:01.228Z,98556.75
2023-05-07T20:20:02.537Z,98563.66
2023-05-07T20:22:04.755Z,98563.66
2023-05-07T20:24:06.215Z,98562.84
2023-05-07T20:26:07.572Z,98565.16
2023-05-07T20:28:08.892Z,98569.00
2023-05-07T20:30:10.517Z,98573.00
2023-05-07T20:32:12.246Z,98569.09
2023-05-07T20:34:13.642Z,98573.84
2023-05-07T20:36:18.136Z,98583.81
2023-05-07T20:38:19.532Z,98578.59
2023-05-07T20:40:20.885Z,98589.66
2023-05-07T20:42:22.338Z,98591.34
2023-05-07T20:44:23.694Z,98592.97
2023-05-07T20:46:27.281Z,98594.66
2023-05-07T20:48:30.724Z,98592.13
2023-05-07T20:50:32.340Z,98593.84
2023-05-07T20:52:36.723Z,98596.41
2023-05-07T20:54:40.346Z,98593.81
2023-05-07T20:56:43.165Z,98600.53
2023-05-07T20:58:44.619Z,98603.03
2023-05-07T21:00:45.959Z,98601.28
2023-05-07T21:02:47.334Z,98597.72
2023-05-07T21:04:51.417Z,98598.72
2023-05-07T21:06:52.804Z,98596.88
2023-05-07T21:08:54.183Z,98604.91
2023-05-07T21:10:55.554Z,98605.94
2023-05-07T21:12:56.960Z,98601.50
2023-05-07T21:14:58.438Z,98602.47
2023-05-07T21:17:00.535Z,98611.00
2023-05-07T21:19:02.035Z,98606.56
2023-05-07T21:21:03.385Z,98609.34
2023-05-07T21:23:04.684Z,98614.31
2023-05-07T21:25:06.171Z,98613.16
2023-05-07T21:27:07.554Z,98620.06
2023-05-07T21:29:09.163Z,98618.53
2023-05-07T21:31:10.520Z,98612.56
2023-05-07T21:33:11.915Z,98609.19
2023-05-07T21:35:13.305Z,98617.00
2023-05-07T21:37:15.760Z,98610.66
2023-05-07T21:39:17.095Z,98604.53
2023-05-07T21:41:20.428Z,98600.16
2023-05-07T21:43:21.755Z,98602.53
2023-05-07T21:45:23.079Z,98606.63
2023-05-07T21:47:24.509Z,98603.09
2023-05-07T21:49:25.925Z,98612.38
2023-05-07T21:51:27.719Z,98601.13
2023-05-07T21:53:29.153Z,98615.53
2023-05-07T21:55:30.414Z,98617.13
2023-05-07T21:57:31.857Z,98617.00
2023-05-07T21:59:34.234Z,98616.13
2023-05-07T22:01:35.679Z,98612.69
2023-05-07T22:03:37.119Z,98618.66
2023-05-07T22:05:38.525Z,98607.53
2023-05-07T22:07:39.847Z,98623.75
2023-05-07T22:09:41.188Z,98619.50
2023-05-07T22:11:45.177Z,98618.66
2023-05-07T22:13:46.508Z,98615.22
2023-05-07T22:15:56.818Z,98622.03
2023-05-07T22:17:59.642Z,98614.41
2023-05-07T22:20:00.974Z,98625.56
2023-05-07T22:22:02.348Z,98625.59
2023-05-07T22:24:07.127Z,98629.84
2023-05-07T22:26:08.436Z,98627.31
2023-05-07T22:28:09.739Z,98625.66
2023-05-07T22:30:11.394Z,98626.63
2023-05-07T22:32:13.060Z,98619.00
2023-05-07T22:34:14.509Z,98626.75
2023-05-07T22:36:15.812Z,98625.91
2023-05-07T22:38:17.129Z,98615.66
2023-05-07T22:40:18.435Z,98621.63
2023-05-07T22:42:19.879Z,98625.94
2023-05-07T22:44:21.216Z,98612.34
2023-05-07T22:46:22.650Z,98620.00
2023-05-07T22:48:24.058Z,98615.75
2023-05-07T22:50:25.367Z,98614.94
2023-05-07T22:52:26.677Z,98612.41
2023-05-07T22:54:28.023Z,98619.28
2023-05-07T22:56:29.362Z,98610.81
2023-05-07T22:58:30.666Z,98614.22
2023-05-07T23:00:31.976Z,98614.22
2023-05-07T23:02:33.378Z,98609.94
2023-05-07T23:04:34.783Z,98613.34
2023-05-07T23:06:36.121Z,98608.25
2023-05-07T23:08:37.427Z,98612.50
2023-05-07T23:10:38.738Z,98609.13
2023-05-07T23:12:40.082Z,98610.88
2023-05-07T23:14:41.424Z,98604.06
2023-05-07T23:16:42.847Z,98608.31
2023-05-07T23:18:44.245Z,98604.91
2023-05-07T23:20:45.769Z,98610.91
2023-05-07T23:22:47.069Z,98608.38
2023-05-07T23:24:48.368Z,98607.56
2023-05-07T23:26:49.652Z,98610.16
2023-05-07T23:28:51.009Z,98608.44
2023-05-07T23:30:52.328Z,98617.00
2023-05-07T23:32:53.821Z,98608.50
2023-05-07T23:34:56.833Z,98605.94
2023-05-07T23:36:58.272Z,98606.78
2023-05-07T23:38:59.577Z,98609.34
2023-05-07T23:41:00.876Z,98610.97
2023-05-07T23:43:02.281Z,98614.34
2023-05-07T23:45:03.601Z,98610.03
2023-05-07T23:47:04.909Z,98611.69
2023-05-07T23:49:06.217Z,98611.69
2023-05-07T23:51:07.515Z,98611.69